sensor_id;sensor_type;location;lat;lon;timestamp;P1;durP1;ratioP1;P2;durP2;ratioP2
10343;SDS011;5217;43.960;10.954;2023-05-10T00:02:20;4.82;;;4.40;;
10343;SDS011;5217;43.960;10.954;2023-05-10T00:04:50;4.57;;;4.20;;
10343;SDS011;5217;43.960;10.954;2023-05-10T00:07:18;4.18;;;3.88;;
10343;SDS011;5217;43.960;10.954;2023-05-10T00:09:46;4.75;;;4.38;;
10343;SDS011;5217;43.960;10.954;2023-05-10T00:12:15;4.63;;;4.22;;
10343;SDS011;5217;43.960;10.954;2023-05-10T00:14:43;4.50;;;4.10;;
10343;SDS011;5217;43.960;10.954;2023-05-10T00:17:12;4.30;;;3.90;;
10343;SDS011;5217;43.960;10.954;2023-05-10T00:19:40;4.85;;;4.30;;
10343;SDS011;5217;43.960;10.954;2023-05-10T00:22:10;4.63;;;4.32;;
10343;SDS011;5217;43.960;10.954;2023-05-10T00:24:38;5.13;;;4.72;;
10343;SDS011;5217;43.960;10.954;2023-05-10T00:27:07;4.57;;;4.28;;
10343;SDS011;5217;43.960;10.954;2023-05-10T00:29:35;4.85;;;4.35;;
10343;SDS011;5217;43.960;10.954;2023-05-10T00:32:03;5.00;;;4.60;;
10343;SDS011;5217;43.960;10.954;2023-05-10T00:34:32;4.70;;;4.30;;
10343;SDS011;5217;43.960;10.954;2023-05-10T00:37:00;4.40;;;4.10;;
10343;SDS011;5217;43.960;10.954;2023-05-10T00:39:30;5.05;;;4.35;;
10343;SDS011;5217;43.960;10.954;2023-05-10T00:41:58;3.90;;;3.60;;
10343;SDS011;5217;43.960;10.954;2023-05-10T00:44:27;4.47;;;4.13;;
10343;SDS011;5217;43.960;10.954;2023-05-10T00:46:55;4.55;;;4.10;;
10343;SDS011;5217;43.960;10.954;2023-05-10T00:49:23;5.10;;;4.70;;
10343;SDS011;5217;43.960;10.954;2023-05-10T00:51:52;4.57;;;4.15;;
10343;SDS011;5217;43.960;10.954;2023-05-10T00:54:20;4.68;;;4.28;;
10343;SDS011;5217;43.960;10.954;2023-05-10T00:56:50;4.90;;;4.50;;
10343;SDS011;5217;43.960;10.954;2023-05-10T00:59:19;5.03;;;4.60;;
10343;SDS011;5217;43.960;10.954;2023-05-10T01:01:48;5.40;;;4.88;;
10343;SDS011;5217;43.960;10.954;2023-05-10T01:04:18;4.75;;;4.35;;
10343;SDS011;5217;43.960;10.954;2023-05-10T01:06:52;4.80;;;4.38;;
10343;SDS011;5217;43.960;10.954;2023-05-10T01:09:21;5.15;;;4.75;;
10343;SDS011;5217;43.960;10.954;2023-05-10T01:11:51;5.55;;;4.85;;
10343;SDS011;5217;43.960;10.954;2023-05-10T01:14:20;5.60;;;5.00;;
10343;SDS011;5217;43.960;10.954;2023-05-10T01:16:49;5.90;;;4.80;;
10343;SDS011;5217;43.960;10.954;2023-05-10T01:19:19;6.70;;;4.90;;
10343;SDS011;5217;43.960;10.954;2023-05-10T01:21:53;5.25;;;4.60;;
10343;SDS011;5217;43.960;10.954;2023-05-10T01:30:36;5.68;;;5.18;;
10343;SDS011;5217;43.960;10.954;2023-05-10T01:33:19;5.78;;;4.72;;
10343;SDS011;5217;43.960;10.954;2023-05-10T01:35:54;5.30;;;4.80;;
10343;SDS011;5217;43.960;10.954;2023-05-10T01:38:32;5.20;;;4.50;;
10343;SDS011;5217;43.960;10.954;2023-05-10T01:41:12;5.03;;;4.63;;
10343;SDS011;5217;43.960;10.954;2023-05-10T01:43:47;4.90;;;4.50;;
10343;SDS011;5217;43.960;10.954;2023-05-10T01:46:24;6.18;;;5.03;;
10343;SDS011;5217;43.960;10.954;2023-05-10T01:48:58;5.00;;;4.60;;
10343;SDS011;5217;43.960;10.954;2023-05-10T01:51:35;4.43;;;4.13;;
10343;SDS011;5217;43.960;10.954;2023-05-10T01:54:08;4.85;;;4.30;;
10343;SDS011;5217;43.960;10.954;2023-05-10T01:56:39;4.40;;;4.10;;
10343;SDS011;5217;43.960;10.954;2023-05-10T01:59:10;4.93;;;4.40;;
10343;SDS011;5217;43.960;10.954;2023-05-10T02:01:40;5.07;;;4.47;;
10343;SDS011;5217;43.960;10.954;2023-05-10T02:04:11;4.80;;;4.38;;
10343;SDS011;5217;43.960;10.954;2023-05-10T02:06:44;4.18;;;3.88;;
10343;SDS011;5217;43.960;10.954;2023-05-10T02:09:14;4.25;;;3.85;;
10343;SDS011;5217;43.960;10.954;2023-05-10T02:11:44;4.55;;;3.60;;
10343;SDS011;5217;43.960;10.954;2023-05-10T02:14:15;4.55;;;3.40;;
10343;SDS011;5217;43.960;10.954;2023-05-10T02:16:46;4.90;;;3.60;;
10343;SDS011;5217;43.960;10.954;2023-05-10T02:19:16;3.78;;;3.47;;
10343;SDS011;5217;43.960;10.954;2023-05-10T02:21:46;3.53;;;3.22;;
10343;SDS011;5217;43.960;10.954;2023-05-10T02:24:17;5.40;;;3.63;;
10343;SDS011;5217;43.960;10.954;2023-05-10T02:26:47;3.83;;;3.15;;
10343;SDS011;5217;43.960;10.954;2023-05-10T02:29:18;3.22;;;3.00;;
10343;SDS011;5217;43.960;10.954;2023-05-10T02:31:49;3.67;;;3.30;;
10343;SDS011;5217;43.960;10.954;2023-05-10T02:34:22;3.50;;;3.20;;
10343;SDS011;5217;43.960;10.954;2023-05-10T02:36:51;3.83;;;3.00;;
10343;SDS011;5217;43.960;10.954;2023-05-10T02:39:20;2.45;;;2.30;;
10343;SDS011;5217;43.960;10.954;2023-05-10T02:41:49;4.88;;;2.75;;
10343;SDS011;5217;43.960;10.954;2023-05-10T02:44:19;2.78;;;2.40;;
10343;SDS011;5217;43.960;10.954;2023-05-10T02:46:49;2.50;;;2.30;;
10343;SDS011;5217;43.960;10.954;2023-05-10T02:49:18;3.53;;;2.65;;
10343;SDS011;5217;43.960;10.954;2023-05-10T02:51:49;3.03;;;2.83;;
10343;SDS011;5217;43.960;10.954;2023-05-10T02:54:24;3.78;;;3.38;;
10343;SDS011;5217;43.960;10.954;2023-05-10T02:56:58;4.03;;;3.20;;
10343;SDS011;5217;43.960;10.954;2023-05-10T02:59:28;3.10;;;2.90;;
10343;SDS011;5217;43.960;10.954;2023-05-10T03:01:56;2.95;;;2.75;;
10343;SDS011;5217;43.960;10.954;2023-05-10T03:04:24;4.25;;;2.80;;
10343;SDS011;5217;43.960;10.954;2023-05-10T03:06:54;3.40;;;2.97;;
10343;SDS011;5217;43.960;10.954;2023-05-10T03:09:23;4.03;;;2.60;;
10343;SDS011;5217;43.960;10.954;2023-05-10T03:11:55;3.17;;;2.88;;
10343;SDS011;5217;43.960;10.954;2023-05-10T03:14:34;3.65;;;2.60;;
10343;SDS011;5217;43.960;10.954;2023-05-10T03:17:22;6.43;;;2.70;;
10343;SDS011;5217;43.960;10.954;2023-05-10T03:19:55;3.00;;;2.80;;
10343;SDS011;5217;43.960;10.954;2023-05-10T03:22:28;3.17;;;2.60;;
10343;SDS011;5217;43.960;10.954;2023-05-10T03:24:59;2.67;;;2.47;;
10343;SDS011;5217;43.960;10.954;2023-05-10T03:27:32;2.70;;;2.50;;
10343;SDS011;5217;43.960;10.954;2023-05-10T03:30:01;2.58;;;2.38;;
10343;SDS011;5217;43.960;10.954;2023-05-10T03:32:30;2.33;;;2.13;;
10343;SDS011;5217;43.960;10.954;2023-05-10T03:35:00;4.72;;;2.03;;
10343;SDS011;5217;43.960;10.954;2023-05-10T03:37:35;2.30;;;2.10;;
10343;SDS011;5217;43.960;10.954;2023-05-10T03:40:03;2.40;;;2.20;;
10343;SDS011;5217;43.960;10.954;2023-05-10T03:42:32;2.95;;;2.35;;
10343;SDS011;5217;43.960;10.954;2023-05-10T03:45:01;2.38;;;2.17;;
10343;SDS011;5217;43.960;10.954;2023-05-10T03:47:30;2.63;;;2.20;;
10343;SDS011;5217;43.960;10.954;2023-05-10T03:49:58;4.65;;;2.13;;
10343;SDS011;5217;43.960;10.954;2023-05-10T03:52:27;4.65;;;2.20;;
10343;SDS011;5217;43.960;10.954;2023-05-10T03:54:57;2.63;;;2.42;;
10343;SDS011;5217;43.960;10.954;2023-05-10T03:57:25;2.75;;;2.30;;
10343;SDS011;5217;43.960;10.954;2023-05-10T03:59:53;2.40;;;2.20;;
10343;SDS011;5217;43.960;10.954;2023-05-10T04:02:21;2.05;;;1.95;;
10343;SDS011;5217;43.960;10.954;2023-05-10T04:04:50;2.97;;;2.63;;
10343;SDS011;5217;43.960;10.954;2023-05-10T04:07:19;2.28;;;2.17;;
10343;SDS011;5217;43.960;10.954;2023-05-10T04:09:47;2.10;;;2.00;;
10343;SDS011;5217;43.960;10.954;2023-05-10T04:12:17;2.28;;;2.13;;
10343;SDS011;5217;43.960;10.954;2023-05-10T04:14:45;2.08;;;1.98;;
10343;SDS011;5217;43.960;10.954;2023-05-10T04:17:13;2.72;;;1.73;;
10343;SDS011;5217;43.960;10.954;2023-05-10T04:19:42;2.38;;;2.17;;
10343;SDS011;5217;43.960;10.954;2023-05-10T04:22:10;2.40;;;2.20;;
10343;SDS011;5217;43.960;10.954;2023-05-10T04:24:38;2.67;;;2.47;;
10343;SDS011;5217;43.960;10.954;2023-05-10T04:27:07;3.00;;;2.80;;
10343;SDS011;5217;43.960;10.954;2023-05-10T04:29:36;2.92;;;2.72;;
10343;SDS011;5217;43.960;10.954;2023-05-10T04:32:05;3.10;;;2.90;;
10343;SDS011;5217;43.960;10.954;2023-05-10T04:34:33;4.03;;;2.95;;
10343;SDS011;5217;43.960;10.954;2023-05-10T04:37:01;2.92;;;2.72;;
10343;SDS011;5217;43.960;10.954;2023-05-10T04:39:30;3.00;;;2.80;;
10343;SDS011;5217;43.960;10.954;2023-05-10T04:41:58;3.78;;;2.80;;
10343;SDS011;5217;43.960;10.954;2023-05-10T04:44:26;2.80;;;2.60;;
10343;SDS011;5217;43.960;10.954;2023-05-10T04:46:56;2.90;;;2.70;;
10343;SDS011;5217;43.960;10.954;2023-05-10T04:49:24;2.95;;;2.70;;
10343;SDS011;5217;43.960;10.954;2023-05-10T04:51:53;2.60;;;2.40;;
10343;SDS011;5217;43.960;10.954;2023-05-10T04:54:21;2.70;;;2.50;;
10343;SDS011;5217;43.960;10.954;2023-05-10T04:56:50;2.70;;;2.50;;
10343;SDS011;5217;43.960;10.954;2023-05-10T04:59:18;2.80;;;2.60;;
10343;SDS011;5217;43.960;10.954;2023-05-10T05:01:46;2.85;;;2.65;;
10343;SDS011;5217;43.960;10.954;2023-05-10T05:04:16;2.78;;;2.58;;
10343;SDS011;5217;43.960;10.954;2023-05-10T05:06:44;2.63;;;2.42;;
10343;SDS011;5217;43.960;10.954;2023-05-10T05:09:13;2.10;;;2.00;;
10343;SDS011;5217;43.960;10.954;2023-05-10T05:11:41;2.38;;;2.17;;
10343;SDS011;5217;43.960;10.954;2023-05-10T05:14:09;2.10;;;2.00;;
10343;SDS011;5217;43.960;10.954;2023-05-10T05:16:38;2.20;;;2.10;;
10343;SDS011;5217;43.960;10.954;2023-05-10T05:19:06;2.35;;;2.15;;
10343;SDS011;5217;43.960;10.954;2023-05-10T05:21:36;2.40;;;2.30;;
10343;SDS011;5217;43.960;10.954;2023-05-10T05:24:05;2.10;;;2.00;;
10343;SDS011;5217;43.960;10.954;2023-05-10T05:26:33;2.88;;;2.67;;
10343;SDS011;5217;43.960;10.954;2023-05-10T05:29:01;2.30;;;2.10;;
10343;SDS011;5217;43.960;10.954;2023-05-10T05:31:30;2.40;;;2.20;;
10343;SDS011;5217;43.960;10.954;2023-05-10T05:33:59;2.20;;;1.95;;
10343;SDS011;5217;43.960;10.954;2023-05-10T05:36:27;2.30;;;2.10;;
10343;SDS011;5217;43.960;10.954;2023-05-10T05:38:57;3.97;;;2.05;;
10343;SDS011;5217;43.960;10.954;2023-05-10T05:41:25;1.92;;;1.83;;
10343;SDS011;5217;43.960;10.954;2023-05-10T05:43:53;2.33;;;2.13;;
10343;SDS011;5217;43.960;10.954;2023-05-10T05:46:22;2.15;;;2.05;;
10343;SDS011;5217;43.960;10.954;2023-05-10T05:48:50;2.08;;;1.90;;
10343;SDS011;5217;43.960;10.954;2023-05-10T05:51:18;1.80;;;1.70;;
10343;SDS011;5217;43.960;10.954;2023-05-10T05:53:47;1.80;;;1.70;;
10343;SDS011;5217;43.960;10.954;2023-05-10T05:56:16;2.55;;;1.77;;
10343;SDS011;5217;43.960;10.954;2023-05-10T05:58:50;2.40;;;2.20;;
10343;SDS011;5217;43.960;10.954;2023-05-10T06:01:18;1.83;;;1.73;;
10343;SDS011;5217;43.960;10.954;2023-05-10T06:03:47;3.05;;;2.00;;
10343;SDS011;5217;43.960;10.954;2023-05-10T06:06:18;2.40;;;2.20;;
10343;SDS011;5217;43.960;10.954;2023-05-10T06:08:47;2.17;;;2.00;;
10343;SDS011;5217;43.960;10.954;2023-05-10T06:11:16;3.38;;;2.20;;
10343;SDS011;5217;43.960;10.954;2023-05-10T06:13:45;2.33;;;2.20;;
10343;SDS011;5217;43.960;10.954;2023-05-10T06:16:13;2.40;;;2.20;;
10343;SDS011;5217;43.960;10.954;2023-05-10T06:18:41;2.05;;;1.90;;
10343;SDS011;5217;43.960;10.954;2023-05-10T06:21:10;2.05;;;1.85;;
10343;SDS011;5217;43.960;10.954;2023-05-10T06:23:38;2.35;;;2.25;;
10343;SDS011;5217;43.960;10.954;2023-05-10T06:26:06;2.17;;;1.98;;
10343;SDS011;5217;43.960;10.954;2023-05-10T06:28:36;2.38;;;2.17;;
10343;SDS011;5217;43.960;10.954;2023-05-10T06:31:05;2.42;;;2.25;;
10343;SDS011;5217;43.960;10.954;2023-05-10T06:33:34;2.58;;;2.38;;
10343;SDS011;5217;43.960;10.954;2023-05-10T06:36:02;2.63;;;2.42;;
10343;SDS011;5217;43.960;10.954;2023-05-10T06:38:30;2.58;;;2.40;;
10343;SDS011;5217;43.960;10.954;2023-05-10T06:40:59;2.38;;;2.28;;
10343;SDS011;5217;43.960;10.954;2023-05-10T06:43:28;2.72;;;2.53;;
10343;SDS011;5217;43.960;10.954;2023-05-10T06:45:57;3.00;;;2.80;;
10343;SDS011;5217;43.960;10.954;2023-05-10T06:48:26;2.97;;;2.70;;
10343;SDS011;5217;43.960;10.954;2023-05-10T06:50:54;3.17;;;2.88;;
10343;SDS011;5217;43.960;10.954;2023-05-10T06:53:22;3.50;;;3.20;;
10343;SDS011;5217;43.960;10.954;2023-05-10T06:55:51;3.38;;;3.08;;
10343;SDS011;5217;43.960;10.954;2023-05-10T06:58:19;2.85;;;2.65;;
10343;SDS011;5217;43.960;10.954;2023-05-10T07:00:47;3.58;;;3.28;;
10343;SDS011;5217;43.960;10.954;2023-05-10T07:03:17;3.20;;;3.00;;
10343;SDS011;5217;43.960;10.954;2023-05-10T07:05:46;3.47;;;3.17;;
10343;SDS011;5217;43.960;10.954;2023-05-10T07:08:14;4.00;;;3.65;;
10343;SDS011;5217;43.960;10.954;2023-05-10T07:10:43;4.22;;;3.72;;
10343;SDS011;5217;43.960;10.954;2023-05-10T07:13:11;3.58;;;3.28;;
10343;SDS011;5217;43.960;10.954;2023-05-10T07:15:40;3.55;;;3.30;;
10343;SDS011;5217;43.960;10.954;2023-05-10T07:18:08;3.28;;;3.08;;
10343;SDS011;5217;43.960;10.954;2023-05-10T07:20:38;3.20;;;2.90;;
10343;SDS011;5217;43.960;10.954;2023-05-10T07:23:07;2.80;;;2.60;;
10343;SDS011;5217;43.960;10.954;2023-05-10T07:25:35;2.00;;;1.90;;
10343;SDS011;5217;43.960;10.954;2023-05-10T07:28:04;3.22;;;2.13;;
10343;SDS011;5217;43.960;10.954;2023-05-10T07:30:32;1.90;;;1.75;;
10343;SDS011;5217;43.960;10.954;2023-05-10T07:33:00;1.70;;;1.60;;
10343;SDS011;5217;43.960;10.954;2023-05-10T07:35:29;2.17;;;1.98;;
10343;SDS011;5217;43.960;10.954;2023-05-10T07:37:58;2.40;;;2.20;;
10343;SDS011;5217;43.960;10.954;2023-05-10T07:40:27;2.13;;;2.03;;
10343;SDS011;5217;43.960;10.954;2023-05-10T07:42:56;2.47;;;2.28;;
10343;SDS011;5217;43.960;10.954;2023-05-10T07:45:24;2.15;;;2.05;;
10343;SDS011;5217;43.960;10.954;2023-05-10T07:47:53;2.05;;;1.85;;
10343;SDS011;5217;43.960;10.954;2023-05-10T07:50:21;2.45;;;2.25;;
10343;SDS011;5217;43.960;10.954;2023-05-10T07:52:49;2.28;;;2.08;;
10343;SDS011;5217;43.960;10.954;2023-05-10T07:55:20;2.20;;;2.10;;
10343;SDS011;5217;43.960;10.954;2023-05-10T07:57:48;2.67;;;2.47;;
10343;SDS011;5217;43.960;10.954;2023-05-10T08:00:17;2.55;;;2.35;;
10343;SDS011;5217;43.960;10.954;2023-05-10T08:02:46;6.53;;;5.22;;
10343;SDS011;5217;43.960;10.954;2023-05-10T08:05:15;10.98;;;9.82;;
10343;SDS011;5217;43.960;10.954;2023-05-10T08:07:44;16.00;;;13.07;;
10343;SDS011;5217;43.960;10.954;2023-05-10T08:10:13;12.20;;;10.90;;
10343;SDS011;5217;43.960;10.954;2023-05-10T08:12:43;9.10;;;8.27;;
10343;SDS011;5217;43.960;10.954;2023-05-10T08:15:11;7.13;;;3.75;;
10343;SDS011;5217;43.960;10.954;2023-05-10T08:17:40;3.30;;;3.10;;
10343;SDS011;5217;43.960;10.954;2023-05-10T08:20:09;2.80;;;2.60;;
10343;SDS011;5217;43.960;10.954;2023-05-10T08:22:39;2.95;;;2.75;;
10343;SDS011;5217;43.960;10.954;2023-05-10T08:25:07;2.50;;;2.30;;
10343;SDS011;5217;43.960;10.954;2023-05-10T08:27:36;2.70;;;2.50;;
10343;SDS011;5217;43.960;10.954;2023-05-10T08:30:06;3.00;;;2.70;;
10343;SDS011;5217;43.960;10.954;2023-05-10T08:32:36;2.92;;;2.70;;
10343;SDS011;5217;43.960;10.954;2023-05-10T08:35:05;2.92;;;2.70;;
10343;SDS011;5217;43.960;10.954;2023-05-10T08:37:34;3.00;;;2.80;;
10343;SDS011;5217;43.960;10.954;2023-05-10T08:40:02;3.38;;;3.08;;
10343;SDS011;5217;43.960;10.954;2023-05-10T08:42:31;3.05;;;2.85;;
10343;SDS011;5217;43.960;10.954;2023-05-10T08:45:06;3.40;;;3.10;;
10343;SDS011;5217;43.960;10.954;2023-05-10T08:47:36;2.97;;;2.78;;
10343;SDS011;5217;43.960;10.954;2023-05-10T08:50:05;3.00;;;2.80;;
10343;SDS011;5217;43.960;10.954;2023-05-10T08:52:35;3.17;;;2.90;;
10343;SDS011;5217;43.960;10.954;2023-05-10T08:55:08;2.80;;;2.60;;
10343;SDS011;5217;43.960;10.954;2023-05-10T08:57:36;3.20;;;2.90;;
10343;SDS011;5217;43.960;10.954;2023-05-10T09:00:07;2.95;;;2.65;;
10343;SDS011;5217;43.960;10.954;2023-05-10T09:02:36;2.80;;;2.60;;
10343;SDS011;5217;43.960;10.954;2023-05-10T09:05:05;2.60;;;2.40;;
10343;SDS011;5217;43.960;10.954;2023-05-10T09:07:36;2.78;;;2.58;;
10343;SDS011;5217;43.960;10.954;2023-05-10T09:10:05;2.67;;;2.47;;
10343;SDS011;5217;43.960;10.954;2023-05-10T09:12:36;2.38;;;2.28;;
10343;SDS011;5217;43.960;10.954;2023-05-10T09:15:06;2.30;;;2.10;;
10343;SDS011;5217;43.960;10.954;2023-05-10T09:17:36;2.50;;;2.40;;
10343;SDS011;5217;43.960;10.954;2023-05-10T09:20:06;3.70;;;2.83;;
10343;SDS011;5217;43.960;10.954;2023-05-10T09:22:35;3.72;;;3.25;;
10343;SDS011;5217;43.960;10.954;2023-05-10T09:25:05;3.10;;;2.80;;
10343;SDS011;5217;43.960;10.954;2023-05-10T09:27:34;3.00;;;2.70;;
10343;SDS011;5217;43.960;10.954;2023-05-10T09:30:03;3.28;;;3.08;;
10343;SDS011;5217;43.960;10.954;2023-05-10T09:32:38;3.40;;;3.10;;
10343;SDS011;5217;43.960;10.954;2023-05-10T09:35:07;3.00;;;2.75;;
10343;SDS011;5217;43.960;10.954;2023-05-10T09:37:36;2.88;;;2.67;;
10343;SDS011;5217;43.960;10.954;2023-05-10T09:40:08;2.58;;;2.38;;
10343;SDS011;5217;43.960;10.954;2023-05-10T09:42:40;2.60;;;2.40;;
10343;SDS011;5217;43.960;10.954;2023-05-10T09:45:09;2.70;;;2.50;;
10343;SDS011;5217;43.960;10.954;2023-05-10T09:47:39;2.42;;;2.22;;
10343;SDS011;5217;43.960;10.954;2023-05-10T09:50:07;2.55;;;2.35;;
10343;SDS011;5217;43.960;10.954;2023-05-10T09:52:45;2.55;;;2.38;;
10343;SDS011;5217;43.960;10.954;2023-05-10T09:55:15;2.63;;;2.38;;
10343;SDS011;5217;43.960;10.954;2023-05-10T09:57:45;2.38;;;2.17;;
10343;SDS011;5217;43.960;10.954;2023-05-10T10:00:18;3.65;;;2.20;;
10343;SDS011;5217;43.960;10.954;2023-05-10T10:02:53;2.67;;;2.20;;
10343;SDS011;5217;43.960;10.954;2023-05-10T10:05:27;2.20;;;2.00;;
10343;SDS011;5217;43.960;10.954;2023-05-10T10:07:56;2.10;;;1.98;;
10343;SDS011;5217;43.960;10.954;2023-05-10T10:10:25;2.10;;;2.00;;
10343;SDS011;5217;43.960;10.954;2023-05-10T10:12:54;2.58;;;2.38;;
10343;SDS011;5217;43.960;10.954;2023-05-10T10:15:23;2.42;;;2.22;;
10343;SDS011;5217;43.960;10.954;2023-05-10T10:17:53;2.40;;;2.20;;
10343;SDS011;5217;43.960;10.954;2023-05-10T10:20:22;2.08;;;1.98;;
10343;SDS011;5217;43.960;10.954;2023-05-10T10:22:52;1.92;;;1.83;;
10343;SDS011;5217;43.960;10.954;2023-05-10T10:25:20;1.90;;;1.80;;
10343;SDS011;5217;43.960;10.954;2023-05-10T10:27:55;2.22;;;1.90;;
10343;SDS011;5217;43.960;10.954;2023-05-10T10:30:31;2.75;;;2.10;;
10343;SDS011;5217;43.960;10.954;2023-05-10T10:33:13;2.22;;;1.75;;
10343;SDS011;5217;43.960;10.954;2023-05-10T10:35:58;1.65;;;1.55;;
10343;SDS011;5217;43.960;10.954;2023-05-10T10:38:35;1.60;;;1.50;;
10343;SDS011;5217;43.960;10.954;2023-05-10T10:41:09;1.73;;;1.58;;
10343;SDS011;5217;43.960;10.954;2023-05-10T10:43:38;2.22;;;2.13;;
10343;SDS011;5217;43.960;10.954;2023-05-10T10:46:10;2.40;;;2.20;;
10343;SDS011;5217;43.960;10.954;2023-05-10T10:48:43;2.50;;;2.30;;
10343;SDS011;5217;43.960;10.954;2023-05-10T10:51:16;2.30;;;2.10;;
10343;SDS011;5217;43.960;10.954;2023-05-10T10:53:44;4.13;;;2.17;;
10343;SDS011;5217;43.960;10.954;2023-05-10T10:56:15;2.88;;;1.92;;
10343;SDS011;5217;43.960;10.954;2023-05-10T10:58:51;2.22;;;1.60;;
10343;SDS011;5217;43.960;10.954;2023-05-10T11:01:20;2.08;;;1.50;;
10343;SDS011;5217;43.960;10.954;2023-05-10T11:06:48;1.80;;;1.50;;
10343;SDS011;5217;43.960;10.954;2023-05-10T11:09:16;1.75;;;1.40;;
10343;SDS011;5217;43.960;10.954;2023-05-10T11:11:51;1.38;;;1.27;;
10343;SDS011;5217;43.960;10.954;2023-05-10T11:14:21;2.58;;;1.35;;
10343;SDS011;5217;43.960;10.954;2023-05-10T11:16:50;1.45;;;1.33;;
10343;SDS011;5217;43.960;10.954;2023-05-10T11:19:21;1.45;;;1.35;;
10343;SDS011;5217;43.960;10.954;2023-05-10T11:24:42;2.55;;;1.20;;
10343;SDS011;5217;43.960;10.954;2023-05-10T11:27:24;2.65;;;1.50;;
10343;SDS011;5217;43.960;10.954;2023-05-10T11:29:53;2.80;;;1.77;;
10343;SDS011;5217;43.960;10.954;2023-05-10T11:32:21;1.73;;;1.50;;
10343;SDS011;5217;43.960;10.954;2023-05-10T11:34:52;2.90;;;1.70;;
10343;SDS011;5217;43.960;10.954;2023-05-10T11:37:21;1.83;;;1.55;;
10343;SDS011;5217;43.960;10.954;2023-05-10T11:39:50;1.70;;;1.42;;
10343;SDS011;5217;43.960;10.954;2023-05-10T11:42:18;1.85;;;1.40;;
10343;SDS011;5217;43.960;10.954;2023-05-10T11:44:47;2.08;;;1.55;;
10343;SDS011;5217;43.960;10.954;2023-05-10T11:47:16;1.95;;;1.48;;
10343;SDS011;5217;43.960;10.954;2023-05-10T11:49:44;1.55;;;1.40;;
10343;SDS011;5217;43.960;10.954;2023-05-10T11:52:14;1.73;;;1.33;;
10343;SDS011;5217;43.960;10.954;2023-05-10T11:54:50;1.42;;;1.33;;
10343;SDS011;5217;43.960;10.954;2023-05-10T11:57:19;1.40;;;1.30;;
10343;SDS011;5217;43.960;10.954;2023-05-10T11:59:49;1.55;;;1.45;;
10343;SDS011;5217;43.960;10.954;2023-05-10T12:02:21;2.67;;;1.60;;
10343;SDS011;5217;43.960;10.954;2023-05-10T12:04:49;1.77;;;1.45;;
10343;SDS011;5217;43.960;10.954;2023-05-10T12:07:20;1.17;;;1.17;;
10343;SDS011;5217;43.960;10.954;2023-05-10T12:10:02;2.50;;;1.40;;
10343;SDS011;5217;43.960;10.954;2023-05-10T12:12:35;1.45;;;1.35;;
10343;SDS011;5217;43.960;10.954;2023-05-10T12:15:06;1.45;;;1.35;;
10343;SDS011;5217;43.960;10.954;2023-05-10T12:17:39;2.30;;;1.30;;
10343;SDS011;5217;43.960;10.954;2023-05-10T12:20:15;1.95;;;1.30;;
10343;SDS011;5217;43.960;10.954;2023-05-10T12:22:48;1.00;;;0.80;;
10343;SDS011;5217;43.960;10.954;2023-05-10T12:25:19;1.73;;;0.60;;
10343;SDS011;5217;43.960;10.954;2023-05-10T12:27:50;0.73;;;0.60;;
10343;SDS011;5217;43.960;10.954;2023-05-10T12:30:20;1.08;;;0.60;;
10343;SDS011;5217;43.960;10.954;2023-05-10T12:32:49;0.30;;;0.30;;
10343;SDS011;5217;43.960;10.954;2023-05-10T12:35:18;0.50;;;0.50;;
10343;SDS011;5217;43.960;10.954;2023-05-10T12:37:51;0.50;;;0.50;;
10343;SDS011;5217;43.960;10.954;2023-05-10T12:40:19;0.90;;;0.50;;
10343;SDS011;5217;43.960;10.954;2023-05-10T12:42:48;0.50;;;0.50;;
10343;SDS011;5217;43.960;10.954;2023-05-10T12:45:17;0.75;;;0.40;;
10343;SDS011;5217;43.960;10.954;2023-05-10T12:47:46;0.90;;;0.60;;
10343;SDS011;5217;43.960;10.954;2023-05-10T12:50:14;0.30;;;0.30;;
10343;SDS011;5217;43.960;10.954;2023-05-10T12:52:43;0.50;;;0.50;;
10343;SDS011;5217;43.960;10.954;2023-05-10T12:55:13;1.20;;;0.80;;
10343;SDS011;5217;43.960;10.954;2023-05-10T12:57:41;0.70;;;0.70;;
10343;SDS011;5217;43.960;10.954;2023-05-10T13:00:10;0.68;;;0.68;;
10343;SDS011;5217;43.960;10.954;2023-05-10T13:02:39;0.60;;;0.60;;
10343;SDS011;5217;43.960;10.954;2023-05-10T13:05:07;0.55;;;0.55;;
10343;SDS011;5217;43.960;10.954;2023-05-10T13:07:36;0.52;;;0.52;;
10343;SDS011;5217;43.960;10.954;2023-05-10T13:10:05;0.50;;;0.50;;
10343;SDS011;5217;43.960;10.954;2023-05-10T13:12:35;2.13;;;0.60;;
10343;SDS011;5217;43.960;10.954;2023-05-10T13:15:05;0.80;;;0.80;;
10343;SDS011;5217;43.960;10.954;2023-05-10T13:17:35;0.82;;;0.68;;
10343;SDS011;5217;43.960;10.954;2023-05-10T13:20:06;0.73;;;0.73;;
10343;SDS011;5217;43.960;10.954;2023-05-10T13:22:35;1.05;;;0.75;;
10343;SDS011;5217;43.960;10.954;2023-05-10T13:25:06;0.63;;;0.63;;
10343;SDS011;5217;43.960;10.954;2023-05-10T13:27:37;0.70;;;0.70;;
10343;SDS011;5217;43.960;10.954;2023-05-10T13:30:06;0.70;;;0.65;;
10343;SDS011;5217;43.960;10.954;2023-05-10T13:32:35;1.27;;;0.60;;
10343;SDS011;5217;43.960;10.954;2023-05-10T13:35:04;0.50;;;0.50;;
10343;SDS011;5217;43.960;10.954;2023-05-10T13:37:33;0.60;;;0.60;;
10343;SDS011;5217;43.960;10.954;2023-05-10T13:40:04;0.65;;;0.60;;
10343;SDS011;5217;43.960;10.954;2023-05-10T13:42:33;0.40;;;0.40;;
10343;SDS011;5217;43.960;10.954;2023-05-10T13:45:04;1.27;;;0.40;;
10343;SDS011;5217;43.960;10.954;2023-05-10T13:47:33;0.52;;;0.50;;
10343;SDS011;5217;43.960;10.954;2023-05-10T13:50:02;0.75;;;0.40;;
10343;SDS011;5217;43.960;10.954;2023-05-10T13:52:32;0.43;;;0.43;;
10343;SDS011;5217;43.960;10.954;2023-05-10T13:55:00;0.30;;;0.30;;
10343;SDS011;5217;43.960;10.954;2023-05-10T13:57:29;0.63;;;0.50;;
10343;SDS011;5217;43.960;10.954;2023-05-10T13:59:58;0.82;;;0.50;;
10343;SDS011;5217;43.960;10.954;2023-05-10T14:02:28;0.60;;;0.60;;
10343;SDS011;5217;43.960;10.954;2023-05-10T14:04:57;0.65;;;0.65;;
10343;SDS011;5217;43.960;10.954;2023-05-10T14:07:27;1.48;;;0.57;;
10343;SDS011;5217;43.960;10.954;2023-05-10T14:09:56;1.25;;;0.55;;
10343;SDS011;5217;43.960;10.954;2023-05-10T14:12:24;2.92;;;0.50;;
10343;SDS011;5217;43.960;10.954;2023-05-10T14:14:52;2.17;;;0.50;;
10343;SDS011;5217;43.960;10.954;2023-05-10T14:17:21;0.63;;;0.57;;
10343;SDS011;5217;43.960;10.954;2023-05-10T14:19:51;1.17;;;1.08;;
10343;SDS011;5217;43.960;10.954;2023-05-10T14:22:20;1.35;;;1.25;;
10343;SDS011;5217;43.960;10.954;2023-05-10T14:24:49;1.20;;;1.10;;
10343;SDS011;5217;43.960;10.954;2023-05-10T14:27:17;0.95;;;0.95;;
10343;SDS011;5217;43.960;10.954;2023-05-10T14:29:46;1.02;;;1.00;;
10343;SDS011;5217;43.960;10.954;2023-05-10T14:32:15;1.20;;;1.10;;
10343;SDS011;5217;43.960;10.954;2023-05-10T14:34:43;1.20;;;1.10;;
10343;SDS011;5217;43.960;10.954;2023-05-10T14:37:13;0.77;;;0.77;;
10343;SDS011;5217;43.960;10.954;2023-05-10T14:39:42;0.80;;;0.80;;
10343;SDS011;5217;43.960;10.954;2023-05-10T14:42:10;0.82;;;0.80;;
10343;SDS011;5217;43.960;10.954;2023-05-10T14:44:39;0.75;;;0.70;;
10343;SDS011;5217;43.960;10.954;2023-05-10T14:47:08;0.80;;;0.80;;
10343;SDS011;5217;43.960;10.954;2023-05-10T14:49:37;1.00;;;0.80;;
10343;SDS011;5217;43.960;10.954;2023-05-10T14:52:07;0.80;;;0.80;;
10343;SDS011;5217;43.960;10.954;2023-05-10T14:54:37;0.90;;;0.90;;
10343;SDS011;5217;43.960;10.954;2023-05-10T14:57:06;1.38;;;0.80;;
10343;SDS011;5217;43.960;10.954;2023-05-10T14:59:34;0.80;;;0.80;;
10343;SDS011;5217;43.960;10.954;2023-05-10T15:02:03;0.70;;;0.70;;
10343;SDS011;5217;43.960;10.954;2023-05-10T15:04:32;1.75;;;1.35;;
10343;SDS011;5217;43.960;10.954;2023-05-10T15:07:01;1.70;;;1.10;;
10343;SDS011;5217;43.960;10.954;2023-05-10T15:09:30;1.48;;;1.02;;
10343;SDS011;5217;43.960;10.954;2023-05-10T15:12:00;0.80;;;0.80;;
10343;SDS011;5217;43.960;10.954;2023-05-10T15:14:28;1.30;;;1.20;;
10343;SDS011;5217;43.960;10.954;2023-05-10T15:16:58;1.05;;;0.93;;